VKG8CB ENGM-ENAL
Flight info
| Callsign | VKG8CB |
|---|---|
| Flight time | 0h 41m |
| Altitude | 32000 |
| Route | EVTOG DCT UTRUF DCT UFGUG DCT OBITI |
| Aircraft | A321/M-SDE3FGHIRWY/LB1 |
Departure
| Time | 2026-05-06 12:33 |
|---|---|
| Airport | Oslo-Gardermoen International Airport (ENGM) |
Arrival
| Time | 2026-05-06 13:14 |
|---|---|
| Airport | Ålesund Airport (ENAL) |
| Time | Latitude | Longitude | Altitude | Speed | Heading |
|---|---|---|---|---|---|
| 2026-05-06 12:08 | 60.19442 | 11.10353 | 690 ft | 0 kts | 196° |
| 2026-05-06 12:08 | 60.19460 | 11.10362 | 685 ft | 0 kts | 195° |
| 2026-05-06 12:22 | 60.19461 | 11.10363 | 691 ft | 2 kts | 195° |
| 2026-05-06 12:22 | 60.19484 | 11.10377 | 689 ft | 4 kts | 198° |
| 2026-05-06 12:23 | 60.19506 | 11.10391 | 685 ft | 4 kts | 199° |
| 2026-05-06 12:23 | 60.19525 | 11.10418 | 687 ft | 4 kts | 251° |
| 2026-05-06 12:23 | 60.19528 | 11.10468 | 685 ft | 4 kts | 279° |
| 2026-05-06 12:23 | 60.19522 | 11.10518 | 683 ft | 4 kts | 286° |
| 2026-05-06 12:24 | 60.19515 | 11.10570 | 687 ft | 4 kts | 286° |
| 2026-05-06 12:24 | 60.19507 | 11.10622 | 683 ft | 4 kts | 286° |
| 2026-05-06 12:24 | 60.19501 | 11.10666 | 685 ft | 1 kts | 286° |
| 2026-05-06 12:26 | 60.19502 | 11.10657 | 685 ft | 5 kts | 286° |
| 2026-05-06 12:26 | 60.19523 | 11.10544 | 684 ft | 9 kts | 305° |
| 2026-05-06 12:27 | 60.19573 | 11.10544 | 689 ft | 7 kts | 18° |
| 2026-05-06 12:27 | 60.19640 | 11.10583 | 686 ft | 17 kts | 15° |
| 2026-05-06 12:27 | 60.19772 | 11.10660 | 688 ft | 18 kts | 15° |
| 2026-05-06 12:27 | 60.19884 | 11.10724 | 686 ft | 14 kts | 16° |
| 2026-05-06 12:28 | 60.19955 | 11.10640 | 688 ft | 18 kts | 286° |
| 2026-05-06 12:28 | 60.19996 | 11.10363 | 688 ft | 21 kts | 285° |
| 2026-05-06 12:28 | 60.20033 | 11.10086 | 690 ft | 20 kts | 286° |
| 2026-05-06 12:28 | 60.20074 | 11.09815 | 684 ft | 20 kts | 286° |
| 2026-05-06 12:29 | 60.20115 | 11.09526 | 683 ft | 23 kts | 286° |
| 2026-05-06 12:29 | 60.20158 | 11.09223 | 681 ft | 22 kts | 285° |
| 2026-05-06 12:29 | 60.20199 | 11.08975 | 679 ft | 16 kts | 301° |
| 2026-05-06 12:29 | 60.20301 | 11.08975 | 683 ft | 21 kts | 16° |
| 2026-05-06 12:30 | 60.20472 | 11.09073 | 681 ft | 27 kts | 16° |
| 2026-05-06 12:30 | 60.20644 | 11.09172 | 683 ft | 26 kts | 16° |
| 2026-05-06 12:30 | 60.20808 | 11.09266 | 687 ft | 24 kts | 16° |
| 2026-05-06 12:30 | 60.20962 | 11.09353 | 681 ft | 23 kts | 16° |
| 2026-05-06 12:31 | 60.21120 | 11.09446 | 685 ft | 23 kts | 15° |
| 2026-05-06 12:31 | 60.21277 | 11.09538 | 683 ft | 21 kts | 16° |
| 2026-05-06 12:31 | 60.21415 | 11.09618 | 682 ft | 18 kts | 16° |
| 2026-05-06 12:31 | 60.21526 | 11.09584 | 682 ft | 20 kts | 314° |
| 2026-05-06 12:32 | 60.21576 | 11.09311 | 685 ft | 19 kts | 283° |
| 2026-05-06 12:32 | 60.21515 | 11.09114 | 683 ft | 19 kts | 201° |
| 2026-05-06 12:32 | 60.21277 | 11.08974 | 684 ft | 67 kts | 196° |
| 2026-05-06 12:32 | 60.20606 | 11.08585 | 684 ft | 130 kts | 196° |
| 2026-05-06 12:33 | 60.19595 | 11.07995 | 808 ft | 164 kts | 198° |
| 2026-05-06 12:33 | 60.18523 | 11.07348 | 1536 ft | 160 kts | 199° |
| 2026-05-06 12:33 | 60.17468 | 11.06670 | 2238 ft | 158 kts | 200° |
| 2026-05-06 12:33 | 60.16805 | 11.06031 | 2565 ft | 164 kts | 216° |
| 2026-05-06 12:34 | 60.16030 | 11.04179 | 2888 ft | 186 kts | 245° |
| 2026-05-06 12:34 | 60.15492 | 11.01656 | 3213 ft | 209 kts | 248° |
| 2026-05-06 12:34 | 60.14883 | 10.98805 | 3585 ft | 235 kts | 247° |
| 2026-05-06 12:34 | 60.14234 | 10.95646 | 4176 ft | 252 kts | 253° |
| 2026-05-06 12:35 | 60.14010 | 10.92144 | 5086 ft | 256 kts | 266° |
| 2026-05-06 12:35 | 60.13895 | 10.88545 | 6042 ft | 260 kts | 266° |
| 2026-05-06 12:35 | 60.13782 | 10.84887 | 6736 ft | 265 kts | 266° |
| 2026-05-06 12:35 | 60.13665 | 10.81199 | 6948 ft | 264 kts | 266° |
| 2026-05-06 12:36 | 60.13543 | 10.77527 | 6997 ft | 264 kts | 266° |
| 2026-05-06 12:36 | 60.13417 | 10.73832 | 7229 ft | 269 kts | 266° |
| 2026-05-06 12:36 | 60.13292 | 10.70103 | 8263 ft | 268 kts | 267° |
| 2026-05-06 12:36 | 60.13510 | 10.66401 | 9218 ft | 271 kts | 287° |
| 2026-05-06 12:37 | 60.14392 | 10.63043 | 10070 ft | 277 kts | 308° |
| 2026-05-06 12:37 | 60.15868 | 10.60419 | 10563 ft | 298 kts | 328° |
| 2026-05-06 12:37 | 60.17788 | 10.58430 | 10831 ft | 322 kts | 331° |
| 2026-05-06 12:37 | 60.19856 | 10.56349 | 11205 ft | 340 kts | 330° |
| 2026-05-06 12:38 | 60.21989 | 10.54205 | 11942 ft | 345 kts | 330° |
| 2026-05-06 12:38 | 60.24163 | 10.52100 | 12790 ft | 350 kts | 334° |
| 2026-05-06 12:38 | 60.26453 | 10.50345 | 13635 ft | 354 kts | 334° |
| 2026-05-06 12:38 | 60.28766 | 10.48579 | 14373 ft | 357 kts | 333° |
| 2026-05-06 12:39 | 60.31097 | 10.46792 | 15078 ft | 360 kts | 333° |
| 2026-05-06 12:39 | 60.33453 | 10.44977 | 15774 ft | 364 kts | 332° |
| 2026-05-06 12:39 | 60.35836 | 10.43135 | 16520 ft | 368 kts | 332° |
| 2026-05-06 12:39 | 60.38203 | 10.41299 | 17236 ft | 371 kts | 331° |
| 2026-05-06 12:40 | 60.40626 | 10.39420 | 17909 ft | 375 kts | 331° |
| 2026-05-06 12:40 | 60.43070 | 10.37518 | 18517 ft | 379 kts | 330° |
| 2026-05-06 12:40 | 60.45544 | 10.35591 | 19087 ft | 383 kts | 330° |
| 2026-05-06 12:40 | 60.48008 | 10.33562 | 19669 ft | 381 kts | 325° |
| 2026-05-06 12:41 | 60.50321 | 10.30973 | 20225 ft | 380 kts | 321° |
| 2026-05-06 12:41 | 60.52615 | 10.28268 | 20789 ft | 382 kts | 320° |
| 2026-05-06 12:41 | 60.54923 | 10.25537 | 21346 ft | 385 kts | 320° |
| 2026-05-06 12:41 | 60.57247 | 10.22781 | 21904 ft | 389 kts | 320° |
| 2026-05-06 12:42 | 60.59595 | 10.19995 | 22525 ft | 392 kts | 319° |
| 2026-05-06 12:42 | 60.61957 | 10.17200 | 23096 ft | 393 kts | 319° |
| 2026-05-06 12:42 | 60.64326 | 10.14395 | 23586 ft | 396 kts | 319° |
| 2026-05-06 12:42 | 60.66717 | 10.11559 | 24072 ft | 399 kts | 319° |
| 2026-05-06 12:43 | 60.69129 | 10.08690 | 24490 ft | 402 kts | 319° |
| 2026-05-06 12:43 | 60.71554 | 10.05798 | 24909 ft | 405 kts | 318° |
| 2026-05-06 12:43 | 60.73994 | 10.02877 | 25329 ft | 408 kts | 318° |
| 2026-05-06 12:43 | 60.76451 | 9.99931 | 25743 ft | 411 kts | 318° |
| 2026-05-06 12:44 | 60.78927 | 9.96951 | 26139 ft | 413 kts | 317° |
| 2026-05-06 12:44 | 60.81241 | 9.93593 | 26512 ft | 404 kts | 309° |
| 2026-05-06 12:44 | 60.83240 | 9.89631 | 26867 ft | 396 kts | 301° |
| 2026-05-06 12:44 | 60.84960 | 9.85258 | 27239 ft | 394 kts | 298° |
| 2026-05-06 12:45 | 60.86665 | 9.80834 | 27615 ft | 397 kts | 298° |
| 2026-05-06 12:45 | 60.88390 | 9.76375 | 27982 ft | 400 kts | 298° |
| 2026-05-06 12:45 | 60.91868 | 9.67367 | 28748 ft | 405 kts | 298° |
| 2026-05-06 12:46 | 60.93629 | 9.62804 | 29158 ft | 409 kts | 298° |
| 2026-05-06 12:46 | 60.95395 | 9.58235 | 29588 ft | 409 kts | 298° |
| 2026-05-06 12:46 | 60.97169 | 9.53653 | 30048 ft | 408 kts | 298° |
| 2026-05-06 12:46 | 60.98929 | 9.49093 | 30419 ft | 407 kts | 298° |
| 2026-05-06 12:47 | 61.00685 | 9.44495 | 30797 ft | 409 kts | 299° |
| 2026-05-06 12:47 | 61.02447 | 9.39851 | 31005 ft | 414 kts | 300° |
| 2026-05-06 12:47 | 61.04231 | 9.35158 | 31268 ft | 417 kts | 301° |
| 2026-05-06 12:47 | 61.06202 | 9.30687 | 31575 ft | 424 kts | 306° |
| 2026-05-06 12:48 | 61.08238 | 9.26280 | 31869 ft | 426 kts | 306° |
| 2026-05-06 12:48 | 61.12289 | 9.17505 | 31956 ft | 417 kts | 306° |
| 2026-05-06 12:49 | 61.16240 | 9.08874 | 31958 ft | 415 kts | 306° |
| 2026-05-06 12:49 | 61.20197 | 9.00155 | 31957 ft | 416 kts | 306° |
| 2026-05-06 12:50 | 61.24167 | 8.91391 | 31969 ft | 417 kts | 306° |
| 2026-05-06 12:50 | 61.28145 | 8.82616 | 31969 ft | 417 kts | 306° |
| 2026-05-06 12:51 | 61.32101 | 8.73818 | 31970 ft | 416 kts | 306° |
| 2026-05-06 12:51 | 61.36052 | 8.65002 | 31984 ft | 416 kts | 306° |
| 2026-05-06 12:52 | 61.39996 | 8.56162 | 31978 ft | 416 kts | 306° |
| 2026-05-06 12:52 | 61.43931 | 8.47295 | 31975 ft | 416 kts | 306° |
| 2026-05-06 12:53 | 61.47874 | 8.38412 | 31975 ft | 417 kts | 306° |
| 2026-05-06 12:53 | 61.51815 | 8.29501 | 31966 ft | 418 kts | 306° |
| 2026-05-06 12:54 | 61.55754 | 8.20526 | 31954 ft | 418 kts | 306° |
| 2026-05-06 12:54 | 61.59690 | 8.11510 | 31956 ft | 419 kts | 306° |
| 2026-05-06 12:55 | 61.63633 | 8.02426 | 31986 ft | 429 kts | 306° |
| 2026-05-06 12:55 | 61.67983 | 7.93659 | 31978 ft | 437 kts | 312° |
| 2026-05-06 12:56 | 61.72586 | 7.85243 | 31975 ft | 439 kts | 313° |
| 2026-05-06 12:56 | 61.77188 | 7.76754 | 31978 ft | 440 kts | 313° |
| 2026-05-06 12:57 | 61.81786 | 7.68215 | 31967 ft | 439 kts | 313° |
| 2026-05-06 12:57 | 61.86376 | 7.59679 | 31967 ft | 439 kts | 313° |
| 2026-05-06 12:58 | 61.90943 | 7.51147 | 30839 ft | 437 kts | 313° |
| 2026-05-06 12:58 | 61.93242 | 7.46825 | 29107 ft | 446 kts | 313° |
| 2026-05-06 12:58 | 61.95574 | 7.42431 | 27346 ft | 449 kts | 313° |
| 2026-05-06 12:58 | 61.97910 | 7.38026 | 25828 ft | 448 kts | 314° |
| 2026-05-06 12:59 | 62.00191 | 7.33657 | 24784 ft | 435 kts | 310° |
| 2026-05-06 12:59 | 62.02148 | 7.28895 | 23784 ft | 421 kts | 305° |
| 2026-05-06 12:59 | 62.03972 | 7.24084 | 22555 ft | 413 kts | 306° |
| 2026-05-06 12:59 | 62.05767 | 7.19317 | 21157 ft | 410 kts | 307° |
| 2026-05-06 13:00 | 62.07539 | 7.14590 | 19886 ft | 406 kts | 307° |
| 2026-05-06 13:00 | 62.09292 | 7.09908 | 18744 ft | 400 kts | 307° |
| 2026-05-06 13:00 | 62.11014 | 7.05300 | 17543 ft | 394 kts | 307° |
| 2026-05-06 13:00 | 62.12711 | 7.00757 | 16530 ft | 385 kts | 307° |
| 2026-05-06 13:01 | 62.14420 | 6.96583 | 16191 ft | 363 kts | 313° |
| 2026-05-06 13:01 | 62.16180 | 6.92894 | 15729 ft | 346 kts | 313° |
| 2026-05-06 13:01 | 62.17880 | 6.89335 | 15268 ft | 341 kts | 313° |
| 2026-05-06 13:01 | 62.19570 | 6.85780 | 14805 ft | 340 kts | 313° |
| 2026-05-06 13:02 | 62.21251 | 6.82226 | 14319 ft | 338 kts | 313° |
| 2026-05-06 13:02 | 62.22903 | 6.78725 | 13844 ft | 337 kts | 313° |
| 2026-05-06 13:02 | 62.24565 | 6.75196 | 13311 ft | 335 kts | 313° |
| 2026-05-06 13:02 | 62.26217 | 6.71683 | 12807 ft | 332 kts | 313° |
| 2026-05-06 13:03 | 62.27858 | 6.68189 | 12292 ft | 331 kts | 313° |
| 2026-05-06 13:03 | 62.29484 | 6.64723 | 11794 ft | 328 kts | 313° |
| 2026-05-06 13:03 | 62.31112 | 6.61295 | 11258 ft | 327 kts | 315° |
| 2026-05-06 13:03 | 62.32997 | 6.58576 | 10837 ft | 327 kts | 332° |
| 2026-05-06 13:04 | 62.35123 | 6.57101 | 10702 ft | 317 kts | 347° |
| 2026-05-06 13:04 | 62.37284 | 6.56844 | 10590 ft | 308 kts | 2° |
| 2026-05-06 13:04 | 62.39351 | 6.57756 | 10430 ft | 300 kts | 17° |
| 2026-05-06 13:04 | 62.41257 | 6.59498 | 10194 ft | 296 kts | 22° |
| 2026-05-06 13:05 | 62.43132 | 6.61290 | 9941 ft | 294 kts | 22° |
| 2026-05-06 13:05 | 62.45000 | 6.63069 | 9801 ft | 294 kts | 22° |
| 2026-05-06 13:05 | 62.46857 | 6.64944 | 9660 ft | 294 kts | 24° |
| 2026-05-06 13:05 | 62.48686 | 6.66908 | 9403 ft | 295 kts | 25° |
| 2026-05-06 13:06 | 62.50511 | 6.68920 | 8928 ft | 295 kts | 25° |
| 2026-05-06 13:06 | 62.52336 | 6.70950 | 8487 ft | 294 kts | 26° |
| 2026-05-06 13:06 | 62.54153 | 6.72963 | 8015 ft | 294 kts | 25° |
| 2026-05-06 13:06 | 62.56011 | 6.74691 | 7713 ft | 288 kts | 13° |
| 2026-05-06 13:07 | 62.57970 | 6.75280 | 7292 ft | 284 kts | 356° |
| 2026-05-06 13:07 | 62.59901 | 6.74657 | 6875 ft | 279 kts | 340° |
| 2026-05-06 13:07 | 62.61675 | 6.73061 | 6415 ft | 276 kts | 332° |
| 2026-05-06 13:07 | 62.63415 | 6.71300 | 6073 ft | 273 kts | 332° |
| 2026-05-06 13:08 | 62.65096 | 6.69594 | 5946 ft | 260 kts | 329° |
| 2026-05-06 13:08 | 62.66427 | 6.67206 | 5805 ft | 240 kts | 300° |
| 2026-05-06 13:08 | 62.66991 | 6.63970 | 5416 ft | 233 kts | 271° |
| 2026-05-06 13:08 | 62.66709 | 6.60532 | 5061 ft | 224 kts | 246° |
| 2026-05-06 13:09 | 62.66091 | 6.57520 | 4732 ft | 218 kts | 243° |
| 2026-05-06 13:09 | 62.65449 | 6.54578 | 4419 ft | 212 kts | 243° |
| 2026-05-06 13:09 | 62.64831 | 6.51713 | 4121 ft | 206 kts | 243° |
| 2026-05-06 13:09 | 62.64232 | 6.48916 | 3824 ft | 201 kts | 243° |
| 2026-05-06 13:10 | 62.63645 | 6.46183 | 3558 ft | 197 kts | 243° |
| 2026-05-06 13:10 | 62.63072 | 6.43512 | 3290 ft | 193 kts | 243° |
| 2026-05-06 13:10 | 62.62506 | 6.40881 | 3013 ft | 191 kts | 243° |
| 2026-05-06 13:10 | 62.61949 | 6.38294 | 2752 ft | 187 kts | 243° |
| 2026-05-06 13:11 | 62.61397 | 6.35732 | 2488 ft | 187 kts | 244° |
| 2026-05-06 13:11 | 62.60846 | 6.33177 | 2245 ft | 185 kts | 244° |
| 2026-05-06 13:11 | 62.60310 | 6.30698 | 1977 ft | 177 kts | 244° |
| 2026-05-06 13:11 | 62.59803 | 6.28351 | 1728 ft | 166 kts | 244° |
| 2026-05-06 13:12 | 62.59333 | 6.26181 | 1476 ft | 152 kts | 244° |
| 2026-05-06 13:12 | 62.58894 | 6.24156 | 1250 ft | 146 kts | 243° |
| 2026-05-06 13:12 | 62.58473 | 6.22214 | 1075 ft | 138 kts | 244° |
| 2026-05-06 13:12 | 62.58074 | 6.20378 | 871 ft | 132 kts | 242° |
| 2026-05-06 13:13 | 62.57693 | 6.18623 | 705 ft | 128 kts | 242° |
| 2026-05-06 13:13 | 62.57315 | 6.16887 | 530 ft | 128 kts | 243° |
| 2026-05-06 13:13 | 62.56942 | 6.15137 | 337 ft | 127 kts | 244° |
| 2026-05-06 13:13 | 62.56569 | 6.13418 | 157 ft | 126 kts | 243° |
| 2026-05-06 13:14 | 62.56199 | 6.11733 | 85 ft | 115 kts | 243° |
| 2026-05-06 13:14 | 62.55910 | 6.10416 | 60 ft | 71 kts | 245° |
| 2026-05-06 13:14 | 62.55770 | 6.09776 | 54 ft | 25 kts | 244° |
| 2026-05-06 13:14 | 62.55723 | 6.09561 | 46 ft | 13 kts | 245° |
| 2026-05-06 13:15 | 62.55661 | 6.09282 | 41 ft | 22 kts | 243° |
| 2026-05-06 13:15 | 62.55585 | 6.09090 | 41 ft | 14 kts | 233° |
| 2026-05-06 13:15 | 62.55607 | 6.09029 | 39 ft | 5 kts | 47° |
| 2026-05-06 13:15 | 62.55652 | 6.09237 | 39 ft | 24 kts | 63° |
| 2026-05-06 13:16 | 62.55718 | 6.09542 | 47 ft | 21 kts | 65° |
| 2026-05-06 13:16 | 62.55773 | 6.09794 | 54 ft | 16 kts | 64° |
| 2026-05-06 13:16 | 62.55845 | 6.10114 | 58 ft | 31 kts | 64° |
| 2026-05-06 13:16 | 62.55947 | 6.10597 | 65 ft | 27 kts | 68° |
| 2026-05-06 13:17 | 62.55919 | 6.10924 | 79 ft | 21 kts | 108° |
| 2026-05-06 13:17 | 62.55914 | 6.11182 | 81 ft | 10 kts | 78° |
| 2026-05-06 13:17 | 62.55917 | 6.11220 | 82 ft | 3 kts | 78° |
| 2026-05-06 13:17 | 62.55893 | 6.11283 | 81 ft | 4 kts | 150° |
| 2026-05-06 13:18 | 62.55879 | 6.11299 | 82 ft | 0 kts | 152° |
| 2026-05-06 13:18 | 62.55875 | 6.11304 | 82 ft | 1 kts | 152° |
| 2026-05-06 13:18 | 62.55873 | 6.11307 | 82 ft | 0 kts | 152° |